Tuesday, October 16, 2018, 6:01 AM EDT
Back to Local

KGKJ, Port Meadville Airport

Location: Meadville, PA, United States Lat: 41.633
Local Time: 6:01 AM EDT (10:01 GMT) Lon: -80.217
Time Zone: US/Eastern Elev: 1400 ft

Show me the last for .
Show Decoded

2018-10-16 04:53 METAR KGKJ 160853Z AUTO 27004KT 10SM SCT027 OVC035 04/02 A3019 RMK AO2 SLP229
                 T00390017 52004 =
2018-10-16 04:42 METAR KGKJ 160842Z AUTO 25004KT 10SM SCT027 OVC033 04/02 A3018 RMK AO2 T00390022
                 =
2018-10-16 04:20 METAR KGKJ 160820Z AUTO 24003KT 10SM BKN029 OVC035 04/02 A3018 RMK AO2 T00390022
                 =
2018-10-16 03:53 METAR KGKJ 160753Z AUTO 00000KT 10SM BKN030 OVC036 04/02 A3018 RMK AO2 SLP226
                 T00390017 =
2018-10-16 02:53 METAR KGKJ 160653Z AUTO 28004KT 10SM OVC036 04/01 A3018 RMK AO2 SLP226 T00390006
                 =
2018-10-16 01:53 METAR KGKJ 160553Z AUTO 00000KT 10SM BKN040 04/01 A3017 RMK AO2 SLP224 T00390006
                 10083 20033 51006 =
2018-10-16 00:53 METAR KGKJ 160453Z AUTO 32004KT 10SM FEW038 04/01 A3017 RMK AO2 SLP222 T00390006
                 401330039 =
2018-10-15 23:53 METAR KGKJ 160353Z AUTO VRB04KT 10SM FEW035 BKN044 06/01 A3017 RMK AO2 SLP219
                 T00560011 =
2018-10-15 22:53 METAR KGKJ 160253Z AUTO VRB05KT 10SM FEW036 BKN046 07/03 A3016 RMK AO2 SLP215
                 T00670028 51031 =
2018-10-15 21:53 METAR KGKJ 160153Z AUTO 28010KT 10SM SCT036 BKN049 07/03 A3013 RMK AO2 SLP206
                 T00720033 =
2018-10-15 20:53 METAR KGKJ 160053Z AUTO 27007KT 10SM FEW050 08/04 A3009 RMK AO2 SLP192 T00780039
                 =
2018-10-15 19:53 METAR KGKJ 152353Z AUTO 27011G18KT 10SM SCT034 SCT045 08/05 A3006 RMK AO2 SLP182
                 60004 T00830050 10117 20083 53028 =
2018-10-15 19:37 METAR KGKJ 152337Z AUTO 29006G18KT 10SM FEW023 BKN030 OVC037 09/06 A3005 RMK AO2
                 T00890061 =
2018-10-15 18:53 METAR KGKJ 152253Z AUTO 26013KT 10SM SCT019 BKN025 OVC046 09/08 A3002 RMK AO2
                 RAB2157E19 SLP170 P0000 T00890078 =
2018-10-15 18:42 METAR KGKJ 152242Z AUTO 26006KT 10SM SCT019 SCT025 BKN040 09/08 A3002 RMK AO2
                 RAB2157E19 P0000 T00890083 =
2018-10-15 17:53 METAR KGKJ 152153Z AUTO 27010KT 10SM OVC021 09/08 A3000 RMK AO2 RAE2054B14E42
                 SLP161 P0000 T00940083 =
2018-10-15 17:11 METAR KGKJ 152111Z AUTO 27007KT 10SM SCT010 BKN018 OVC026 10/09 A2997 RMK AO2
                 RAE2054 P0000 T01000094 =
2018-10-15 16:53 METAR KGKJ 152053Z AUTO 26013G23KT 10SM -RA SCT007 BKN012 OVC026 10/09 A2997 RMK
                 AO2 SLP153 P0003 60004 T01000094 53008 =
2018-10-15 16:51 METAR KGKJ 152051Z AUTO 26011G23KT 10SM -RA SCT007 BKN014 OVC026 10/09 A2997 RMK
                 AO2 P0003 =
2018-10-15 16:02 METAR KGKJ 152002Z AUTO 27010G21KT 6SM -RA BR BKN009 OVC015 11/11 A2995 RMK AO2
                 CIG 007V011 P0000 T01060106 =
2018-10-15 15:53 METAR KGKJ 151953Z AUTO 27008KT 10SM -RA BKN011 OVC015 11/11 A2995 RMK AO2 RAB43
                 CIG 007V013 SLP143 P0000 T01110106 =
2018-10-15 15:50 METAR KGKJ 151950Z AUTO 27008G18KT 10SM -RA BKN011 OVC018 11/11 A2995 RMK AO2
                 RAB43 P0000 =
2018-10-15 15:21 METAR KGKJ 151921Z AUTO 26012KT 10SM FEW009 BKN015 OVC029 12/11 A2994 RMK AO2
                 T01170106 =
2018-10-15 15:12 METAR KGKJ 151912Z AUTO 26013G20KT 10SM BKN013 BKN017 OVC031 12/11 A2993 RMK AO2
                 T01170106 =
2018-10-15 14:59 METAR KGKJ 151859Z AUTO 26012KT 10SM SCT010 OVC015 12/11 A2993 RMK AO2 T01170111
                 =
2018-10-15 14:53 METAR KGKJ 151853Z AUTO 26010KT 10SM BKN009 OVC013 12/11 A2993 RMK AO2 RAB05E15
                 SLP136 P0001 T01170111 =
2018-10-15 13:53 METAR KGKJ 151753Z AUTO 26015G24KT 10SM BKN009 BKN015 OVC025 12/12 A2994 RMK AO2
                 RAE50 SLP139 P0004 60010 T01170117 10133 20117 53007 =
2018-10-15 12:53 METAR KGKJ 151653Z AUTO 24012G21KT 8SM -RA OVC009 13/13 A2992 RMK AO2
                 RAB1555E24B52 CIG 006V013 SLP133 P0002 T01330128 =
2018-10-15 12:14 METAR KGKJ 151614Z AUTO 25010KT 3SM -RA BR OVC005 13/13 A2992 RMK AO2 RAB1555
                 CIG 003V007 P0001 T01330133 =
2018-10-15 12:01 METAR KGKJ 151601Z AUTO 24010G17KT 2 1/2SM -RA BR BKN005 OVC010 13/13 A2992 RMK
                 AO2 RAB1555 P0000 T01330133 =
2018-10-15 11:53 METAR KGKJ 151553Z AUTO 23010G19KT 4SM BR BKN004 OVC011 13/13 A2991 RMK AO2
                 RAE30B42E50 SLP130 P0001 T01330133 =
2018-10-15 11:30 METAR KGKJ 151530Z AUTO 24010KT 3SM BR OVC004 13/13 A2991 RMK AO2 RAE30 CIG
                 002V007 P0001 T01330133 =
2018-10-15 10:53 METAR KGKJ 151453Z AUTO 24008KT 2 1/2SM -RA BR OVC002 13/13 A2991 RMK AO2
                 RAE13B23 SLP130 P0002 60003 T01330133 58001 =
2018-10-15 10:15 METAR KGKJ 151415Z AUTO 22006KT 2 1/2SM BR OVC002 13/13 A2992 RMK AO2 RAE13
                 P0001 T01330133 =
2018-10-15 09:53 METAR KGKJ 151353Z AUTO 21007KT 1 1/4SM -RA BR OVC002 13/13 A2992 RMK AO2 RAB33
                 SLP131 P0001 T01330133 =
2018-10-15 09:01 METAR KGKJ 151301Z AUTO 21008KT 1 1/2SM BR OVC002 13/13 A2991 RMK AO2 T01280128
                 $ =
2018-10-15 08:53 METAR KGKJ 151253Z AUTO 22007KT 2SM BR OVC002 13/13 A2992 RMK AO2 SLP132
                 T01280128 $ =
2018-10-15 08:50 METAR KGKJ 151250Z AUTO 21009KT 2SM BR OVC002 13/13 A2992 RMK AO2 $ =
2018-10-15 08:02 METAR KGKJ 151202Z AUTO 21005KT 4SM BR OVC002 12/12 A2992 RMK AO2 T01220122 $ =
2018-10-15 07:53 METAR KGKJ 151153Z AUTO 21007KT 2 1/2SM BR OVC002 12/12 A2992 RMK AO2 RAB08E19
                 SLP134 P0000 60005 70005 T01170117 10117 20089 55003 $ =
2018-10-15 07:34 METAR KGKJ 151134Z AUTO 20005KT 2 1/2SM BR OVC002 12/12 A2991 RMK AO2 RAB08E19
                 P0000 T01170117 $ =
2018-10-15 07:25 METAR KGKJ 151125Z AUTO 19006KT 1 1/2SM BR OVC002 12/12 A2992 RMK AO2 RAB08E19
                 P0000 T01170117 $ =
2018-10-15 07:04 METAR KGKJ 151104Z AUTO 20005KT 3/4SM BR VV002 11/11 A2993 RMK AO2 T01110111 $ =
2018-10-15 06:53 METAR KGKJ 151053Z AUTO 19005KT 1 1/4SM BR OVC002 11/11 A2992 RMK AO2 SLP133
                 T01110111 $ =
2018-10-15 06:30 METAR KGKJ 151030Z AUTO VRB03KT 2 1/2SM BR OVC002 11/11 A2991 RMK AO2 T01110111
                 $ =

Support USWX by starting your Amazon purchase here.